Latest Weather Observations for Davis*

IDT60801

Issued at 8:05 pm EDT Monday 24 November 2014 (issued every 30 minutes, with the page automatically refreshed every 10 minutes)

About weather observations | Map of weather stations | Latest weather observations for ANT | Other Formats
Station Details ID: 300000 Name: DAVIS Lat: -68.57 Lon: 77.97 Height: 18.0 m
Data from the previous 72 hours. | See also: Recent months at Davis*
Date/Time
EDT
Temp
°C
App
Temp
°C
Dew
Point
Rel
Hum
%
Delta-T
°C
Wind Press
QNH
hPa
Press
MSL
hPa
Rain
since 9 am
mm
Dir
 
Spd
km/h
Gust
km/h
Spd
kts
Gust
kts
24/08:00pm -0.4 -6.3 -9.8 49 - NW 15 17 8 9 980.3 980.5 -
24/07:30pm -1.1 -7.2 -8.1 59 - N 17 20 9 11 980.3 - -
24/07:00pm 0.9 -7.9 -11.1 40 - NE 30 41 16 22 980.2 - -
24/06:30pm 0.5 -9.0 -13.2 35 - NE 33 43 18 23 980.3 - -
24/06:00pm 0.5 -7.3 -13.2 35 - NE 24 35 13 19 980.5 - -
24/05:30pm 0.2 -8.5 -14.9 31 - NE 28 41 15 22 980.6 - -
24/05:00pm -1.5 -8.8 -10.3 51 - N 22 26 12 14 980.9 981.1 -
24/04:30pm -0.4 -8.3 -14.0 35 - NNE 24 30 13 16 981.0 - -
24/04:00pm -1.5 -10.6 -16.4 31 - NNE 30 39 16 21 981.1 - -
24/03:30pm -2.1 -11.2 -15.5 35 - NNE 30 35 16 19 981.3 - -
24/03:00pm -2.2 -11.0 -16.3 33 - NNE 28 35 15 19 981.3 - -
24/02:30pm -2.6 -11.0 -17.7 30 - NNE 26 35 14 19 981.5 - -
24/02:00pm -2.4 -10.8 -18.0 29 - NNE 26 37 14 20 981.6 981.8 -
24/01:30pm -2.6 -9.9 -17.4 31 - ENE 20 28 11 15 981.9 - -
24/01:00pm -3.1 -10.4 -18.2 30 - ENE 20 28 11 15 982.0 - -
24/12:30pm -3.4 -10.7 -18.4 30 - ENE 20 26 11 14 982.0 - -
24/12:00pm -3.6 -10.9 -18.6 30 - ENE 20 26 11 14 982.1 - -
24/11:30am -4.2 -11.4 -18.8 31 - ENE 19 24 10 13 982.1 - -
24/11:00am -4.5 -11.8 -18.3 33 - ENE 20 24 11 13 982.3 982.5 -
24/10:30am -4.8 -10.8 -18.6 33 - E 13 19 7 10 982.4 - -
24/10:00am -5.1 -11.5 -18.1 35 - E 15 19 8 10 982.4 - -
24/09:30am -5.4 -12.7 -16.8 40 - ENE 20 26 11 14 982.4 - -
24/09:00am -6.0 -13.7 -17.4 40 - ENE 22 30 12 16 982.4 - -
24/08:30am -6.1 -14.1 -16.9 42 - ENE 24 30 13 16 982.4 - -
24/08:00am -6.2 -14.2 -16.4 44 - ENE 24 30 13 16 982.4 982.6 -
24/07:30am -5.9 -13.1 -15.6 46 - ENE 20 28 11 15 982.4 - -
24/07:00am -5.6 -12.8 -15.1 47 - ENE 20 26 11 14 982.3 - -
24/06:30am -5.3 -11.9 -14.8 47 - NE 17 22 9 12 982.4 - -
24/06:00am -5.1 -11.2 -13.6 51 - NE 15 20 8 11 982.4 - -
24/05:30am -4.9 -12.0 -13.4 51 - NNE 20 26 11 14 982.5 - -
24/05:00am -4.6 -11.7 -12.9 52 - NE 20 24 11 13 982.5 982.7 -
24/04:30am -3.8 -11.3 -13.4 47 - ENE 22 26 12 14 982.4 - -
24/04:00am -3.3 -10.7 -13.2 46 - ENE 22 28 12 15 982.3 - -
24/03:30am -2.8 -10.7 -13.6 43 - NE 24 28 13 15 982.3 - -
24/03:00am -1.7 -8.8 -13.2 41 - ENE 20 26 11 14 982.3 - -
24/02:30am -2.2 -7.4 -10.2 54 - SSE 11 17 6 9 982.3 - -
24/02:00am -2.1 -8.3 -9.2 58 - S 17 20 9 11 982.4 982.6 -
24/01:30am -1.9 -8.5 -9.7 55 - S 19 24 10 13 982.6 - -
24/01:00am -2.1 -8.4 -9.9 55 - S 17 22 9 12 982.7 - -
24/12:30am -2.2 -8.5 -10.9 51 - S 17 24 9 13 983.0 - -
24/12:00am -2.7 -9.5 -8.9 62 - SW 20 26 11 14 983.1 - -
 
Date/Time
EDT
Temp
°C
App
Temp
°C
Dew
Point
Rel
Hum
%
Delta-T
°C
Wind Press
QNH
hPa
Press
MSL
hPa
Rain
since 9 am
mm
Dir
 
Spd
km/h
Gust
km/h
Spd
kts
Gust
kts
23/11:30pm -2.8 -9.5 -8.1 67 - SW 20 24 11 13 983.3 - -
23/11:00pm -2.8 -9.3 -7.9 68 - SW 19 24 10 13 983.5 983.7 -
23/10:30pm -1.8 -7.5 -7.5 65 - SW 15 19 8 10 983.7 - -
23/10:00pm -2.2 -8.3 -7.9 65 - WSW 17 19 9 10 983.8 - -
23/09:30pm -2.2 -7.9 -7.9 65 - WSW 15 17 8 9 984.1 - -
23/09:00pm -1.8 -7.6 -8.3 61 - WSW 15 15 8 8 984.3 - -
23/08:30pm -1.3 -6.7 -8.5 58 - WSW 13 15 7 8 984.6 - -
23/08:00pm -1.6 -6.7 -9.0 57 - WSW 11 13 6 7 984.7 984.9 -
23/07:30pm -1.9 -7.3 -8.8 59 - WSW 13 15 7 8 984.9 - -
23/07:00pm -1.3 -7.5 -8.9 56 - NW 17 20 9 11 985.0 - -
23/06:30pm -1.1 -6.5 -8.7 56 - NW 13 15 7 8 985.1 - -
23/06:00pm -1.5 -7.3 -8.9 57 - NNW 15 17 8 9 985.4 - -
23/05:30pm -1.8 -8.1 -9.6 55 - N 17 20 9 11 985.6 - -
23/05:00pm -1.9 -8.1 -9.3 57 - N 17 19 9 10 985.7 985.9 -
23/04:30pm -2.0 -8.6 -9.1 58 - N 19 22 10 12 986.0 - -
23/04:00pm -1.6 -7.5 -10.1 52 - N 15 20 8 11 986.2 - -
23/03:30pm -1.7 -8.1 -11.0 49 - NE 17 28 9 15 986.4 - -
23/03:00pm -1.4 -7.8 -12.3 43 - NE 17 26 9 14 986.7 - -
23/02:30pm -1.8 -8.9 -13.0 42 - ENE 20 26 11 14 986.9 - -
23/02:00pm -1.9 -9.4 -13.4 41 - ENE 22 28 12 15 987.0 987.3 -
23/01:30pm -5.0 -9.9 -11.5 60 - N 9 15 5 8 987.6 - -
23/01:00pm -4.6 -9.5 -11.2 60 - NNW 9 17 5 9 987.9 - -
23/12:30pm -5.0 -9.4 -12.4 56 - NNW 6 7 3 4 988.0 - -
23/12:00pm -5.4 -9.8 -12.3 58 - N 6 9 3 5 988.0 - -
23/11:30am -4.7 -10.4 -12.8 53 - NNE 13 19 7 10 988.2 - -
23/11:00am -4.6 -10.7 -13.4 50 - NE 15 20 8 11 988.4 988.7 -
23/10:30am -4.9 -11.4 -13.2 52 - ENE 17 20 9 11 988.4 - -
23/10:00am -5.1 -11.3 -14.4 48 - ENE 15 20 8 11 988.7 - -
23/09:30am -5.7 -11.5 -14.4 50 - ESE 13 17 7 9 989.2 - -
23/09:00am -5.5 -12.0 -14.0 51 - E 17 20 9 11 989.4 - -
23/08:30am -5.5 -12.0 -14.0 51 - ENE 17 20 9 11 989.5 - -
23/08:00am -5.5 -11.7 -13.8 52 - ENE 15 17 8 9 989.8 990.1 -
23/07:30am -5.9 -11.3 -13.7 54 - E 11 15 6 8 990.0 - -
23/07:00am -5.8 -11.6 -13.6 54 - E 13 15 7 8 990.2 - -
23/06:30am -5.0 -10.8 -13.8 50 - ENE 13 15 7 8 990.4 - -
23/06:00am -4.8 -10.9 -13.4 51 - ENE 15 17 8 9 990.5 - -
23/05:30am -4.5 -9.5 -8.6 73 - E 11 13 6 7 990.6 - -
23/05:00am -5.4 -10.1 -9.3 74 - SE 9 15 5 8 990.7 991.0 -
23/04:30am -4.9 -9.6 -9.3 71 - SSE 9 13 5 7 991.0 - -
23/04:00am -4.4 -10.3 -9.8 66 - S 15 19 8 10 991.2 - -
23/03:30am -3.9 -9.0 -9.7 64 - S 11 15 6 8 991.6 - -
23/03:00am -4.6 -9.8 -10.2 65 - SSW 11 15 6 8 991.9 - -
23/02:30am -4.1 -9.6 -10.3 62 - SSW 13 17 7 9 992.2 - -
23/02:00am -4.3 -10.2 -9.5 67 - SW 15 17 8 9 992.4 992.7 -
23/01:30am -4.3 -9.4 -8.9 70 - SW 11 15 6 8 992.6 - -
23/01:00am -4.1 -9.9 -8.9 69 - WSW 15 17 8 9 992.9 - -
23/12:30am -3.5 -9.3 -8.3 69 - WSW 15 17 8 9 993.2 - -
23/12:00am -2.9 -9.0 -8.3 66 - WSW 17 19 9 10 993.4 - -
 
Date/Time
EDT
Temp
°C
App
Temp
°C
Dew
Point
Rel
Hum
%
Delta-T
°C
Wind Press
QNH
hPa
Press
MSL
hPa
Rain
since 9 am
mm
Dir
 
Spd
km/h
Gust
km/h
Spd
kts
Gust
kts
22/11:30pm -3.0 -8.8 -8.2 67 - WSW 15 17 8 9 993.7 - -
22/11:00pm -3.0 -8.5 -9.4 61 - W 13 17 7 9 994.2 994.5 -
22/10:30pm -2.9 -8.4 -9.1 62 - W 13 15 7 8 994.5 - -
22/10:00pm -2.4 -7.5 -9.3 59 - W 11 13 6 7 994.6 - -
22/09:30pm -2.7 -7.9 -10.7 54 - W 11 13 6 7 995.0 - -
22/09:00pm -2.4 -7.6 -10.4 54 - W 11 11 6 6 995.6 - -
22/08:30pm -2.1 -6.9 -11.1 50 - W 9 11 5 6 995.9 - -
22/08:00pm -2.2 -6.6 -10.5 53 - W 7 9 4 5 996.2 996.5 -
22/07:30pm -2.5 -7.3 -10.5 54 - W 9 11 5 6 996.5 - -
22/06:30pm -2.8 -9.0 -9.5 60 - NNW 17 20 9 11 996.6 - -
22/06:00pm -2.8 -9.7 -10.3 56 - NNW 20 24 11 13 996.7 - -
22/05:30pm -2.3 -9.0 -10.6 53 - NNW 19 22 10 12 997.0 - -
22/05:00pm -2.9 -9.2 -10.2 57 - N 17 20 9 11 997.2 997.5 -
22/04:30pm -3.0 -9.7 -9.9 59 - N 19 24 10 13 997.3 - -
22/04:00pm -2.4 -9.2 -9.1 60 - N 20 22 11 12 997.4 - -
22/03:30pm -3.4 -10.2 -9.6 62 - N 20 26 11 14 997.5 - -
22/03:00pm -3.6 -10.2 -9.8 62 - N 19 22 10 12 997.6 - -
22/02:30pm -4.2 -11.0 -9.6 66 - N 20 24 11 13 997.7 - -
22/02:00pm -4.2 -11.0 -9.8 65 - N 20 26 11 14 997.8 998.1 -
22/01:30pm -4.2 -11.1 -10.2 63 - N 20 24 11 13 998.1 - -
22/01:00pm -3.3 -10.1 -9.7 61 - NNE 20 24 11 13 998.3 - -
22/12:30pm -3.9 -8.7 -9.9 63 - N 9 17 5 9 998.6 - -
22/12:00pm -5.3 -9.2 -10.6 66 - W 4 6 2 3 998.7 - -
22/11:30am -5.1 -9.5 -10.6 65 - N 7 11 4 6 998.8 - -
22/11:00am -5.4 -8.8 -10.2 69 - NNE 2 7 1 4 999.0 999.2 -
22/10:30am -6.0 -9.1 -10.0 73 - CALM 0 0 0 0 999.1 - -
22/10:00am -5.3 -8.4 -10.1 69 - CALM 0 0 0 0 999.1 - -
22/09:30am -5.3 -10.0 -9.5 72 - NE 9 11 5 6 999.3 - -
22/09:00am -5.3 -10.4 -9.4 73 - NNE 11 15 6 8 999.3 - -
22/08:30am -4.8 -11.0 -8.7 74 - NNE 17 19 9 10 999.2 - -
22/08:00am -4.4 -8.8 -6.1 88 - E 9 11 5 6 999.1 999.3 -
22/07:30am -4.4 -9.2 -5.8 90 - ESE 11 15 6 8 999.1 - -
22/07:00am -4.2 -9.4 -5.7 89 - ESE 13 17 7 9 999.0 - -
22/06:30am -3.8 -7.7 -6.1 84 - ESE 6 7 3 4 998.9 - -
22/06:00am -3.9 -6.6 -5.9 86 - CALM 0 0 0 0 998.8 - -
22/05:30am -3.6 -7.4 -5.9 84 - SE 6 7 3 4 998.8 - -
22/05:00am -3.7 -7.5 -5.8 85 - S 6 7 3 4 998.7 998.9 -
22/04:30am -3.7 -7.8 -6.2 83 - S 7 9 4 5 998.5 - -
22/04:00am -3.8 -8.3 -6.7 80 - SSW 9 11 5 6 998.4 - -
22/03:30am -4.0 -8.9 -6.9 80 - SW 11 13 6 7 998.4 - -
22/03:00am -4.0 -9.2 -6.3 84 - SW 13 15 7 8 998.3 - -
22/02:30am -3.5 -8.7 -6.4 80 - SW 13 15 7 8 998.3 - -
22/02:00am -3.6 -8.8 -5.9 84 - SW 13 15 7 8 998.2 998.4 -
22/01:30am -3.0 -8.2 -5.8 81 - SW 13 15 7 8 998.2 - -
22/01:00am -3.0 -7.8 -6.3 78 - SW 11 15 6 8 998.1 - -
22/12:30am -3.2 -8.1 -6.6 77 - SW 11 13 6 7 998.1 - -

Other Formats:

Comma delimited format used in spreadsheet applications
http://www.bom.gov.au/fwo/IDT60803/IDT60803.89571.axf

JavaScript Object Notation format (JSON) in row-major order
http://www.bom.gov.au/fwo/IDT60803/IDT60803.89571.json